Time;durP1;ratioP1;P1;durP2;ratioP2;P2;SDS_P1;SDS_P2;PMS_P1;PMS_P2;Temp;Humidity;BMP_temperature;BMP_pressure;BME280_temperature;BME280_humidity;BME280_pressure;Samples;Min_cycle;Max_cycle;Signal;HPM_P1;HPM_P2
2022/04/23 00:01:45;;;;;;;4.43;3.10;;;;;17.80;100473.00;;;;5065129;28;20252;-85
2022/04/23 00:04:14;;;;;;;4.70;3.35;;;;;17.80;100459.00;;;;5064128;28;20211;-84
2022/04/23 00:06:43;;;;;;;3.47;3.15;;;;;17.80;100465.00;;;;5069592;28;20543;-85
2022/04/23 00:09:12;;;;;;;6.78;3.00;;;;;17.70;100466.00;;;;5068179;28;20203;-85
2022/04/23 00:11:39;;;;;;;3.92;3.28;;;;;17.70;100466.00;;;;5064893;28;20285;-83
2022/04/23 00:14:07;;;;;;;4.43;3.08;;;;;17.70;100463.00;;;;5056106;28;20195;-85
2022/04/23 00:16:34;;;;;;;4.28;3.38;;;;;17.70;100457.00;;;;5070120;28;20314;-84
2022/04/23 00:19:02;;;;;;;4.25;3.05;;;;;17.70;100464.00;;;;5054231;28;20192;-84
2022/04/23 00:21:29;;;;;;;2.80;2.55;;;;;17.70;100461.00;;;;5064277;28;20203;-84
2022/04/23 00:23:56;;;;;;;3.72;3.28;;;;;17.70;100468.00;;;;5066765;28;20211;-84
2022/04/23 00:26:25;;;;;;;3.22;2.92;;;;;17.60;100457.00;;;;5067543;28;20195;-83
2022/04/23 00:28:53;;;;;;;6.78;3.20;;;;;17.60;100461.00;;;;5065087;28;20203;-84
2022/04/23 00:31:20;;;;;;;4.35;3.55;;;;;17.60;100457.00;;;;5068892;28;20211;-84
2022/04/23 00:33:48;;;;;;;4.20;3.10;;;;;17.60;100451.00;;;;5059948;28;20256;-84
2022/04/23 00:36:15;;;;;;;3.85;3.33;;;;;17.60;100454.00;;;;5068183;28;20226;-84
2022/04/23 00:38:44;;;;;;;4.22;3.83;;;;;17.60;100451.00;;;;5066387;28;20204;-84
2022/04/23 00:41:43;;;;;;;4.60;3.75;;;;;17.60;100456.00;;;;5056736;28;20680;-85
2022/04/23 00:44:07;;;;;;;4.60;3.78;;;;;17.50;100453.00;;;;5052252;28;20204;-84
2022/04/23 00:46:35;;;;;;;3.90;3.50;;;;;17.50;100453.00;;;;5065657;28;20565;-84
2022/04/23 00:49:03;;;;;;;6.53;4.10;;;;;17.50;100446.00;;;;5060576;28;20200;-84
2022/04/23 00:51:31;;;;;;;4.10;3.33;;;;;17.50;100445.00;;;;5050037;28;20643;-85
2022/04/23 00:53:59;;;;;;;5.05;4.00;;;;;17.40;100450.00;;;;5065282;28;20195;-85
2022/04/23 00:56:27;;;;;;;6.15;3.65;;;;;17.40;100439.00;;;;5065243;28;20191;-85
2022/04/23 00:58:55;;;;;;;6.63;4.30;;;;;17.40;100442.00;;;;5051370;28;20222;-84
2022/04/23 01:01:25;;;;;;;5.57;4.03;;;;;17.40;100434.00;;;;5062902;28;20997;-83
2022/04/23 01:03:53;;;;;;;8.45;4.72;;;;;17.40;100440.00;;;;5051095;28;20227;-84
2022/04/23 01:06:23;;;;;;;5.00;4.05;;;;;17.30;100455.00;;;;5049229;28;20203;-83
2022/04/23 01:08:51;;;;;;;7.30;4.25;;;;;17.30;100445.00;;;;5063194;28;20289;-84
2022/04/23 01:11:18;;;;;;;4.88;4.07;;;;;17.30;100444.00;;;;5050295;28;20223;-85
2022/04/23 01:13:46;;;;;;;4.43;3.88;;;;;17.30;100440.00;;;;5057728;28;20226;-84
2022/04/23 01:16:13;;;;;;;4.35;3.83;;;;;17.30;100441.00;;;;5068698;28;20187;-82
2022/04/23 01:18:43;;;;;;;5.18;4.68;;;;;17.20;100442.00;;;;5062735;28;20206;-82
2022/04/23 01:21:13;;;;;;;7.90;5.28;;;;;17.20;100445.00;;;;5058617;28;20214;-84
2022/04/23 01:23:41;;;;;;;4.35;3.90;;;;;17.20;100435.00;;;;5054621;28;20348;-84
2022/04/23 01:26:10;;;;;;;5.93;4.50;;;;;17.20;100444.00;;;;5064445;28;20206;-84
2022/04/23 01:28:38;;;;;;;5.97;4.43;;;;;17.20;100441.00;;;;5068746;28;20210;-84
2022/04/23 01:31:07;;;;;;;6.43;5.32;;;;;17.20;100437.00;;;;5068539;28;20199;-83
2022/04/23 01:33:35;;;;;;;5.32;4.78;;;;;17.10;100442.00;;;;5060656;28;20207;-83
2022/04/23 01:36:02;;;;;;;5.22;4.63;;;;;17.10;100446.00;;;;5053024;28;20234;-83
2022/04/23 01:38:31;;;;;;;7.15;5.00;;;;;17.10;100444.00;;;;5052528;28;20624;-83
2022/04/23 01:40:58;;;;;;;5.03;4.38;;;;;17.10;100451.00;;;;5049045;28;20203;-83
2022/04/23 01:43:25;;;;;;;7.47;5.57;;;;;17.10;100438.00;;;;5066406;28;20207;-83
2022/04/23 01:45:53;;;;;;;7.45;5.45;;;;;17.00;100446.00;;;;5059206;28;20197;-83
2022/04/23 01:48:21;;;;;;;6.30;5.38;;;;;17.00;100443.00;;;;5061630;28;20203;-84
2022/04/23 01:50:50;;;;;;;6.03;4.72;;;;;17.00;100449.00;;;;5063492;28;20203;-84
2022/04/23 01:53:18;;;;;;;5.47;4.80;;;;;17.00;100447.00;;;;5056953;28;20243;-83
2022/04/23 01:55:46;;;;;;;7.22;5.72;;;;;16.90;100459.00;;;;5068193;28;20199;-84
2022/04/23 01:58:14;;;;;;;7.95;5.88;;;;;16.90;100459.00;;;;5065502;28;20210;-83
2022/04/23 02:00:41;;;;;;;7.80;5.78;;;;;16.90;100456.00;;;;5063020;28;20207;-82
2022/04/23 02:03:08;;;;;;;5.95;5.35;;;;;16.90;100454.00;;;;5065434;28;20202;-83
2022/04/23 02:05:37;;;;;;;6.25;5.07;;;;;16.90;100458.00;;;;5064377;28;20731;-83
2022/04/23 02:08:05;;;;;;;6.85;5.65;;;;;16.90;100454.00;;;;5063123;28;20205;-83
2022/04/23 02:10:32;;;;;;;8.07;6.18;;;;;16.90;100455.00;;;;5058493;28;20208;-83
2022/04/23 02:13:01;;;;;;;6.25;5.15;;;;;16.90;100446.00;;;;5052226;28;20223;-83
2022/04/23 02:15:28;;;;;;;8.02;5.82;;;;;16.90;100449.00;;;;5056117;28;20194;-83
2022/04/23 02:17:55;;;;;;;6.82;5.63;;;;;16.90;100447.00;;;;5067198;28;20665;-83
2022/04/23 02:20:23;;;;;;;7.72;6.22;;;;;16.90;100445.00;;;;5066937;28;20870;-83
2022/04/23 02:22:50;;;;;;;9.02;5.82;;;;;17.00;100446.00;;;;5059077;28;20608;-82
2022/04/23 02:25:19;;;;;;;6.60;5.10;;;;;17.00;100447.00;;;;5060011;28;20691;-83
2022/04/23 02:27:48;;;;;;;7.93;5.75;;;;;17.00;100446.00;;;;5055641;28;20200;-83
2022/04/23 02:30:18;;;;;;;6.93;5.82;;;;;17.00;100449.00;;;;5048671;28;20199;-83
2022/04/23 02:32:46;;;;;;;9.10;6.80;;;;;17.00;100440.00;;;;5049981;28;20249;-82
2022/04/23 02:35:14;;;;;;;8.52;6.15;;;;;17.00;100450.00;;;;5053617;28;20217;-83
2022/04/23 02:37:42;;;;;;;7.40;6.60;;;;;17.00;100438.00;;;;5066225;28;20273;-83
2022/04/23 02:40:10;;;;;;;8.95;6.72;;;;;17.00;100438.00;;;;5064949;28;20198;-83
2022/04/23 02:42:38;;;;;;;7.63;5.68;;;;;17.00;100444.00;;;;5059611;28;20221;-83
2022/04/23 02:45:06;;;;;;;8.30;6.68;;;;;17.00;100437.00;;;;5053129;28;20290;-82
2022/04/23 02:47:45;;;;;;;8.48;7.05;;;;;17.00;100442.00;;;;5052767;28;20192;-83
2022/04/23 02:50:12;;;;;;;7.57;6.78;;;;;17.00;100445.00;;;;5048397;28;20289;-83
2022/04/23 02:52:42;;;;;;;9.55;6.97;;;;;17.00;100449.00;;;;5055127;28;20223;-82
2022/04/23 02:55:09;;;;;;;8.35;6.63;;;;;17.10;100449.00;;;;5064276;28;20214;-82
2022/04/23 02:57:37;;;;;;;8.50;7.22;;;;;17.10;100447.00;;;;5061889;28;20213;-83
2022/04/23 03:00:06;;;;;;;9.10;7.47;;;;;17.10;100443.00;;;;5052203;28;20195;-84
2022/04/23 03:02:36;;;;;;;8.63;7.07;;;;;17.10;100450.00;;;;5060413;28;20703;-82
2022/04/23 03:05:06;;;;;;;8.50;6.93;;;;;17.10;100440.00;;;;5055081;28;20255;-82
2022/04/23 03:07:34;;;;;;;7.90;7.00;;;;;17.10;100443.00;;;;5056108;28;20199;-82
2022/04/23 03:10:02;;;;;;;9.07;7.60;;;;;17.20;100448.00;;;;5064980;28;20207;-83
2022/04/23 03:12:29;;;;;;;9.43;7.90;;;;;17.20;100448.00;;;;5061626;28;20704;-82
2022/04/23 03:14:57;;;;;;;10.35;7.70;;;;;17.20;100444.00;;;;5063359;28;20688;-82
2022/04/23 03:17:26;;;;;;;11.23;7.35;;;;;17.20;100448.00;;;;5053440;28;20195;-82
2022/04/23 03:19:53;;;;;;;10.18;7.90;;;;;17.20;100449.00;;;;5052161;28;20195;-83
2022/04/23 03:22:22;;;;;;;10.23;7.40;;;;;17.20;100447.00;;;;5058707;28;20205;-82
2022/04/23 03:24:49;;;;;;;10.18;8.20;;;;;17.20;100442.00;;;;5051738;28;20885;-83
2022/04/23 03:27:17;;;;;;;10.77;8.45;;;;;17.20;100448.00;;;;5061045;28;20581;-82
2022/04/23 03:29:44;;;;;;;9.70;8.00;;;;;17.20;100450.00;;;;5070577;28;20199;-85
2022/04/23 03:32:11;;;;;;;10.85;8.98;;;;;17.10;100452.00;;;;5060635;28;20322;-82
2022/04/23 03:34:39;;;;;;;9.85;8.35;;;;;17.10;100449.00;;;;5059676;28;20226;-82
2022/04/23 03:37:06;;;;;;;8.57;7.65;;;;;17.10;100450.00;;;;5062382;28;20226;-82
2022/04/23 03:39:36;;;;;;;10.82;8.77;;;;;17.10;100451.00;;;;5071106;28;20571;-81
2022/04/23 03:42:04;;;;;;;9.68;7.68;;;;;17.10;100452.00;;;;5063864;28;20278;-81
2022/04/23 03:44:32;;;;;;;9.13;7.45;;;;;17.00;100444.00;;;;5056325;28;20202;-82
2022/04/23 03:47:01;;;;;;;11.32;8.95;;;;;17.00;100439.00;;;;5058609;28;20221;-83
2022/04/23 03:49:28;;;;;;;9.98;8.20;;;;;17.00;100439.00;;;;5061116;28;20928;-82
2022/04/23 03:51:56;;;;;;;8.90;7.95;;;;;17.00;100439.00;;;;5063638;28;20244;-82
2022/04/23 03:54:23;;;;;;;10.10;9.07;;;;;17.00;100439.00;;;;5064874;28;20195;-82
2022/04/23 03:56:52;;;;;;;9.43;8.25;;;;;16.90;100443.00;;;;5070798;28;20191;-82
2022/04/23 03:59:23;;;;;;;10.35;8.75;;;;;16.90;100435.00;;;;5071225;28;20225;-82
2022/04/23 04:01:52;;;;;;;11.02;8.27;;;;;16.90;100438.00;;;;5063530;28;20235;-81
2022/04/23 04:04:19;;;;;;;11.48;7.60;;;;;16.90;100438.00;;;;5051190;28;20191;-82
2022/04/23 04:06:46;;;;;;;9.23;8.18;;;;;16.80;100434.00;;;;5061623;28;20207;-82
2022/04/23 04:09:14;;;;;;;11.48;9.35;;;;;16.80;100446.00;;;;5066717;28;20199;-82
2022/04/23 04:14:27;;;;;;;9.43;8.10;;;;;16.70;100429.00;;;;5055435;28;20206;-82
2022/04/23 04:16:55;;;;;;;9.60;8.43;;;;;16.70;100422.00;;;;5058488;28;20191;-82
2022/04/23 04:19:22;;;;;;;9.50;8.50;;;;;16.70;100428.00;;;;5066271;28;20199;-82
2022/04/23 04:21:49;;;;;;;10.30;8.90;;;;;16.70;100414.00;;;;5055713;28;20212;-82
2022/04/23 04:24:17;;;;;;;11.07;9.20;;;;;16.60;100415.00;;;;5068682;28;20198;-82
2022/04/23 04:26:48;;;;;;;11.45;8.77;;;;;16.60;100414.00;;;;5063137;28;20198;-82
2022/04/23 04:29:16;;;;;;;11.88;9.48;;;;;16.60;100414.00;;;;5070158;28;20207;-82
2022/04/23 04:31:51;;;;;;;10.98;8.60;;;;;16.50;100413.00;;;;5062686;28;20199;-82
2022/04/23 04:34:20;;;;;;;11.15;9.73;;;;;16.50;100418.00;;;;5055543;28;20225;-83
2022/04/23 04:36:49;;;;;;;12.95;9.88;;;;;16.50;100417.00;;;;5060148;28;20254;-82
2022/04/23 04:39:18;;;;;;;10.18;9.07;;;;;16.50;100408.00;;;;5050696;28;20202;-82
2022/04/23 04:41:47;;;;;;;10.18;8.65;;;;;16.40;100413.00;;;;5055708;28;20191;-82
2022/04/23 04:44:14;;;;;;;12.52;9.88;;;;;16.40;100413.00;;;;5058451;28;20742;-82
2022/04/23 04:46:42;;;;;;;13.98;10.45;;;;;16.40;100410.00;;;;5060527;28;20203;-83
2022/04/23 04:49:10;;;;;;;10.85;9.48;;;;;16.30;100415.00;;;;5050484;28;20196;-82
2022/04/23 04:51:38;;;;;;;10.80;9.40;;;;;16.30;100410.00;;;;5051684;28;20202;-82
2022/04/23 04:54:06;;;;;;;9.95;8.88;;;;;16.30;100411.00;;;;5068293;28;20700;-82
2022/04/23 04:56:34;;;;;;;11.73;9.25;;;;;16.30;100409.00;;;;5069279;28;20198;-83
2022/04/23 04:59:01;;;;;;;10.73;9.20;;;;;16.30;100409.00;;;;5069479;28;20675;-82
2022/04/23 05:01:29;;;;;;;11.77;9.40;;;;;16.30;100403.00;;;;5052447;28;20196;-82
2022/04/23 05:03:56;;;;;;;12.27;9.90;;;;;16.30;100404.00;;;;5050268;28;20211;-82
2022/04/23 05:06:26;;;;;;;13.50;9.25;;;;;16.20;100419.00;;;;5051907;28;20207;-83
2022/04/23 05:08:56;;;;;;;11.13;9.32;;;;;16.20;100413.00;;;;5066746;28;20213;-83
2022/04/23 05:11:24;;;;;;;12.73;9.02;;;;;16.20;100422.00;;;;5054992;28;20250;-85
2022/04/23 05:13:51;;;;;;;11.50;9.88;;;;;16.20;100424.00;;;;5059301;28;20265;-85
2022/04/23 05:16:19;;;;;;;12.13;10.52;;;;;16.20;100416.00;;;;5066452;28;20206;-85
2022/04/23 05:18:46;;;;;;;10.20;9.02;;;;;16.20;100421.00;;;;5069722;28;20199;-84
2022/04/23 05:21:14;;;;;;;11.63;9.90;;;;;16.20;100424.00;;;;5067062;28;20187;-84
2022/04/23 05:23:42;;;;;;;12.55;10.23;;;;;16.20;100414.00;;;;5063306;28;20190;-82
2022/04/23 05:26:10;;;;;;;12.40;10.18;;;;;16.20;100418.00;;;;5066133;28;20615;-84
2022/04/23 05:28:39;;;;;;;23.95;10.68;;;;;16.30;100418.00;;;;5064951;28;20227;-84
2022/04/23 05:31:07;;;;;;;12.95;9.23;;;;;16.30;100410.00;;;;5056585;28;20254;-84
2022/04/23 05:33:34;;;;;;;10.93;9.02;;;;;16.30;100419.00;;;;5053189;28;20250;-84
2022/04/23 05:36:06;;;;;;;11.57;10.38;;;;;16.30;100409.00;;;;5067207;28;20276;-83
2022/04/23 05:38:35;;;;;;;12.32;10.00;;;;;16.40;100405.00;;;;5058503;28;20192;-84
2022/04/23 05:41:04;;;;;;;13.65;10.05;;;;;16.40;100415.00;;;;5056798;28;20239;-84
2022/04/23 05:43:31;;;;;;;12.20;9.57;;;;;16.40;100423.00;;;;5056771;28;20210;-84
2022/04/23 05:46:00;;;;;;;11.32;9.48;;;;;16.50;100415.00;;;;5053636;28;20207;-83
2022/04/23 05:48:27;;;;;;;12.27;9.35;;;;;16.50;100417.00;;;;5054666;28;20228;-85
2022/04/23 05:50:55;;;;;;;10.93;9.48;;;;;16.50;100414.00;;;;5057794;28;20291;-85
2022/04/23 05:53:22;;;;;;;11.13;9.43;;;;;16.60;100419.00;;;;5060547;28;20223;-84
2022/04/23 05:55:50;;;;;;;11.55;9.85;;;;;16.60;100416.00;;;;5063712;28;20207;-84
2022/04/23 05:58:18;;;;;;;10.63;8.50;;;;;16.60;100418.00;;;;5058872;28;20693;-83
2022/04/23 06:00:47;;;;;;;12.77;10.80;;;;;16.70;100427.00;;;;5059887;28;20191;-84
2022/04/23 06:03:14;;;;;;;14.05;9.02;;;;;16.70;100423.00;;;;5059407;28;20202;-80
2022/04/23 06:05:42;;;;;;;11.65;9.95;;;;;16.80;100428.00;;;;5066471;28;21075;-84
2022/04/23 06:08:10;;;;;;;12.52;10.02;;;;;16.80;100425.00;;;;5053272;28;20203;-86
2022/04/23 06:10:37;;;;;;;10.95;9.80;;;;;16.80;100424.00;;;;5059968;28;20202;-81
2022/04/23 06:13:06;;;;;;;10.40;8.70;;;;;16.90;100434.00;;;;5060542;28;20222;-81
2022/04/23 06:15:35;;;;;;;9.93;8.90;;;;;16.90;100431.00;;;;5068513;28;20201;-81
2022/04/23 06:18:02;;;;;;;9.10;7.68;;;;;17.00;100430.00;;;;5067459;28;20215;-81
2022/04/23 06:20:29;;;;;;;10.38;8.65;;;;;17.10;100427.00;;;;5055524;28;20195;-80
2022/04/23 06:22:56;;;;;;;10.38;8.57;;;;;17.10;100434.00;;;;5058950;28;20585;-84
2022/04/23 06:25:24;;;;;;;9.43;8.43;;;;;17.20;100437.00;;;;5050831;28;20269;-82
2022/04/23 06:27:51;;;;;;;14.35;8.38;;;;;17.20;100430.00;;;;5064063;28;20201;-83
2022/04/23 06:30:19;;;;;;;11.32;8.25;;;;;17.30;100423.00;;;;5067936;28;20203;-84
2022/04/23 06:32:48;;;;;;;9.38;7.90;;;;;17.40;100423.00;;;;5067787;28;20664;-83
2022/04/23 06:35:15;;;;;;;11.70;8.43;;;;;17.40;100425.00;;;;5059159;28;20256;-83
2022/04/23 06:37:44;;;;;;;9.43;8.38;;;;;17.50;100425.00;;;;5059752;28;20237;-84
2022/04/23 06:40:13;;;;;;;10.32;8.20;;;;;17.50;100422.00;;;;5058004;28;20235;-85
2022/04/23 06:42:40;;;;;;;9.73;8.25;;;;;17.60;100416.00;;;;5050895;28;20195;-85
2022/04/23 06:45:08;;;;;;;9.13;7.97;;;;;17.70;100422.00;;;;5061575;28;20232;-84
2022/04/23 06:47:36;;;;;;;9.13;8.05;;;;;17.70;100423.00;;;;5068452;28;20664;-84
2022/04/23 06:50:06;;;;;;;8.75;7.63;;;;;17.80;100425.00;;;;5059744;28;20202;-82
2022/04/23 06:52:33;;;;;;;10.27;8.35;;;;;17.90;100413.00;;;;5071034;28;20661;-82
2022/04/23 06:55:00;;;;;;;9.25;8.27;;;;;17.90;100413.00;;;;5068123;28;20225;-82
2022/04/23 06:57:27;;;;;;;10.60;9.27;;;;;18.00;100417.00;;;;5055448;28;20203;-79
2022/04/23 06:59:55;;;;;;;9.55;7.75;;;;;18.10;100413.00;;;;5057923;28;20191;-79
2022/04/23 07:02:23;;;;;;;8.82;7.95;;;;;18.10;100414.00;;;;5057599;28;20190;-80
2022/04/23 07:04:50;;;;;;;9.75;8.38;;;;;18.20;100407.00;;;;5060597;28;20661;-82
2022/04/23 07:07:19;;;;;;;9.48;8.25;;;;;18.30;100412.00;;;;5060348;28;20206;-83
2022/04/23 07:09:46;;;;;;;11.60;8.73;;;;;18.40;100408.00;;;;5059904;28;20198;-82
2022/04/23 07:12:14;;;;;;;10.15;8.23;;;;;18.40;100412.00;;;;5058386;28;20576;-82
2022/04/23 07:14:42;;;;;;;10.35;8.93;;;;;18.50;100414.00;;;;5058550;28;20727;-82
2022/04/23 07:17:10;;;;;;;10.40;9.32;;;;;18.50;100423.00;;;;5063082;28;20542;-80
2022/04/23 07:19:40;;;;;;;11.35;9.40;;;;;18.60;100417.00;;;;5059511;28;20207;-78
2022/04/23 07:22:08;;;;;;;11.07;8.30;;;;;18.60;100429.00;;;;5063347;28;20201;-79
2022/04/23 07:24:37;;;;;;;10.32;9.15;;;;;18.70;100419.00;;;;5062768;28;20284;-83
2022/04/23 07:27:05;;;;;;;9.48;8.48;;;;;18.80;100412.00;;;;5054280;28;20239;-80
2022/04/23 07:29:32;;;;;;;8.93;8.00;;;;;18.80;100416.00;;;;5063280;28;20198;-82
2022/04/23 07:31:59;;;;;;;9.88;8.57;;;;;18.90;100418.00;;;;5059298;28;20203;-81
2022/04/23 07:37:29;;;;;;;8.73;7.63;;;;;19.00;100406.00;;;;5059861;28;20310;-80
2022/04/23 07:39:59;;;;;;;10.25;8.63;;;;;19.00;100411.00;;;;5060143;28;20194;-80
2022/04/23 07:42:27;;;;;;;9.23;8.13;;;;;19.10;100411.00;;;;5061872;28;20326;-81
2022/04/23 07:44:54;;;;;;;9.68;8.48;;;;;19.20;100410.00;;;;5057186;28;20198;-82
2022/04/23 07:47:22;;;;;;;9.00;7.82;;;;;19.20;100399.00;;;;5061617;28;20191;-79
2022/04/23 07:49:50;;;;;;;10.30;9.18;;;;;19.30;100413.00;;;;5065131;28;20191;-78
2022/04/23 07:52:17;;;;;;;9.30;8.32;;;;;19.40;100419.00;;;;5066044;28;20199;-82
2022/04/23 07:54:45;;;;;;;12.30;7.88;;;;;19.40;100406.00;;;;5068593;28;20226;-84
2022/04/23 07:57:14;;;;;;;8.65;7.85;;;;;19.50;100407.00;;;;5061724;28;20692;-82
2022/04/23 07:59:42;;;;;;;11.50;8.73;;;;;19.60;100402.00;;;;5061180;28;20202;-82
2022/04/23 08:02:09;;;;;;;10.38;9.02;;;;;19.60;100415.00;;;;5062590;28;20665;-82
2022/04/23 08:04:37;;;;;;;10.13;8.18;;;;;19.70;100404.00;;;;5067093;28;20203;-83
2022/04/23 08:07:05;;;;;;;9.63;8.60;;;;;19.70;100414.00;;;;5054544;28;20196;-83
2022/04/23 08:09:37;;;;;;;8.45;7.53;;;;;19.80;100409.00;;;;5062686;28;20199;-82
2022/04/23 08:12:06;;;;;;;9.02;7.97;;;;;19.90;100395.00;;;;5070762;28;20230;-83
2022/04/23 08:14:34;;;;;;;12.45;8.95;;;;;19.90;100405.00;;;;5063980;28;20227;-81
2022/04/23 08:17:04;;;;;;;8.80;7.90;;;;;20.00;100411.00;;;;5057888;28;20194;-82
2022/04/23 08:19:32;;;;;;;9.02;7.88;;;;;20.10;100395.00;;;;5053274;28;20192;-81
2022/04/23 08:21:59;;;;;;;9.50;8.23;;;;;20.10;100393.00;;;;5056952;28;20549;-81
2022/04/23 08:24:26;;;;;;;9.63;8.57;;;;;20.20;100387.00;;;;5051565;28;20207;-80
2022/04/23 08:26:53;;;;;;;8.70;7.80;;;;;20.30;100397.00;;;;5057602;28;20885;-81
2022/04/23 08:32:08;;;;;;;11.13;8.98;;;;;20.40;100379.00;;;;5057483;28;20203;-78
2022/04/23 08:34:36;;;;;;;9.73;8.60;;;;;20.50;100370.00;;;;5049313;28;20603;-77
2022/04/23 08:37:03;;;;;;;9.30;8.30;;;;;20.60;100379.00;;;;5053918;28;20822;-78
2022/04/23 08:39:30;;;;;;;9.50;8.50;;;;;20.70;100372.00;;;;5064235;28;20654;-77
2022/04/23 08:41:58;;;;;;;8.77;7.82;;;;;20.80;100370.00;;;;5066924;28;20199;-77
2022/04/23 08:44:25;;;;;;;9.07;7.82;;;;;20.90;100367.00;;;;5063677;28;20200;-77
2022/04/23 08:46:54;;;;;;;11.43;9.30;;;;;21.00;100372.00;;;;5052628;28;20204;-78
2022/04/23 08:49:30;;;;;;;10.40;8.88;;;;;21.00;100377.00;;;;5063645;28;20201;-77
2022/04/23 08:52:09;;;;;;;10.20;9.10;;;;;21.00;100368.00;;;;5069933;28;20668;-77
2022/04/23 08:54:37;;;;;;;10.27;9.00;;;;;21.10;100369.00;;;;5069177;28;20226;-77
2022/04/23 08:57:05;;;;;;;10.90;9.02;;;;;21.10;100359.00;;;;5070036;28;20199;-77
2022/04/23 08:59:32;;;;;;;8.93;7.90;;;;;21.20;100378.00;;;;5068922;28;20195;-77
2022/04/23 09:02:00;;;;;;;9.18;8.25;;;;;21.20;100378.00;;;;5063901;28;20195;-77
2022/04/23 09:04:29;;;;;;;8.70;7.78;;;;;21.30;100370.00;;;;5062530;28;20204;-78
2022/04/23 09:06:57;;;;;;;8.23;7.43;;;;;21.40;100374.00;;;;5050321;28;20211;-78
2022/04/23 09:09:25;;;;;;;11.07;9.35;;;;;21.50;100369.00;;;;5067922;28;20199;-78
2022/04/23 09:11:54;;;;;;;10.10;8.63;;;;;21.50;100362.00;;;;5069142;28;20199;-78
2022/04/23 09:14:29;;;;;;;9.55;8.52;;;;;21.50;100368.00;;;;5065796;28;20223;-78
2022/04/23 09:25:40;;;;;;;9.57;8.00;;;;;22.10;100361.00;;;;5068289;28;20210;-78
2022/04/23 09:28:17;;;;;;;10.80;8.82;;;;;22.20;100366.00;;;;5061927;28;20203;-78
2022/04/23 09:30:46;;;;;;;9.75;8.20;;;;;22.40;100366.00;;;;5057776;28;20245;-78
2022/04/23 09:33:14;;;;;;;10.45;8.82;;;;;22.40;100367.00;;;;5075468;28;20285;-78
2022/04/23 09:35:56;;;;;;;9.52;8.18;;;;;22.40;100365.00;;;;5066436;28;21151;-78
2022/04/23 09:38:24;;;;;;;7.82;7.00;;;;;22.50;100363.00;;;;5049513;28;20195;-77
2022/04/23 09:40:53;;;;;;;10.27;8.20;;;;;22.50;100361.00;;;;5068898;28;20665;-78
2022/04/23 09:43:30;;;;;;;9.35;8.35;;;;;22.40;100357.00;;;;5059138;28;20590;-77
2022/04/23 09:46:05;;;;;;;9.75;8.30;;;;;22.50;100361.00;;;;5064875;28;20285;-78
2022/04/23 09:48:33;;;;;;;9.27;7.85;;;;;22.60;100370.00;;;;5068146;28;20198;-78
2022/04/23 09:51:03;;;;;;;10.25;8.80;;;;;22.60;100363.00;;;;5054565;28;20249;-77
2022/04/23 09:53:30;;;;;;;10.18;8.50;;;;;22.60;100370.00;;;;5068143;28;20657;-77
2022/04/23 09:56:00;;;;;;;9.63;8.05;;;;;22.60;100375.00;;;;5068878;28;20202;-77
2022/04/23 09:58:29;;;;;;;9.07;8.23;;;;;22.70;100376.00;;;;5067364;28;20249;-78
2022/04/23 10:00:58;;;;;;;9.20;8.30;;;;;22.70;100375.00;;;;5052050;28;20203;-78
2022/04/23 10:03:30;;;;;;;8.38;7.20;;;;;22.80;100372.00;;;;5073619;28;20205;-77
2022/04/23 10:05:58;;;;;;;9.23;8.15;;;;;23.00;100376.00;;;;5067548;28;20265;-78
2022/04/23 10:08:29;;;;;;;9.70;8.30;;;;;23.00;100369.00;;;;5062391;28;20297;-77
2022/04/23 10:11:04;;;;;;;10.82;9.35;;;;;23.10;100367.00;;;;5068432;28;20199;-78
2022/04/23 10:13:31;;;;;;;9.55;8.55;;;;;23.10;100375.00;;;;5067226;28;20206;-78
2022/04/23 10:15:59;;;;;;;9.95;8.57;;;;;23.10;100366.00;;;;5065800;28;20321;-77
2022/04/23 10:18:27;;;;;;;9.00;8.10;;;;;23.10;100376.00;;;;5067864;28;20203;-78
2022/04/23 10:20:58;;;;;;;10.43;8.43;;;;;23.20;100361.00;;;;5066967;28;20205;-78
2022/04/23 10:23:47;;;;;;;9.27;8.07;;;;;23.10;100370.00;;;;5052227;28;20202;-77
2022/04/23 10:26:46;;;;;;;9.60;8.00;;;;;23.10;100353.00;;;;5067618;28;20191;-77
2022/04/23 10:29:15;;;;;;;9.48;8.50;;;;;23.30;100348.00;;;;5024051;28;20210;-77
2022/04/23 10:31:43;;;;;;;8.68;7.78;;;;;23.40;100358.00;;;;5065609;28;20294;-77
2022/04/23 10:34:32;;;;;;;8.73;7.47;;;;;23.40;100354.00;;;;5057161;28;20312;-77
2022/04/23 10:37:19;;;;;;;9.40;8.32;;;;;23.60;100351.00;;;;5049020;28;20323;-77
2022/04/23 10:40:15;;;;;;;10.68;8.77;;;;;23.70;100359.00;;;;5068361;28;20211;-78
2022/04/23 10:43:08;;;;;;;10.07;8.57;;;;;23.80;100363.00;;;;5067142;28;20199;-78
2022/04/23 10:45:37;;;;;;;9.98;8.43;;;;;24.00;100367.00;;;;5058662;28;20223;-77
2022/04/23 10:48:27;;;;;;;11.30;9.43;;;;;24.10;100366.00;;;;5057299;28;20210;-77
2022/04/23 10:51:06;;;;;;;10.23;8.55;;;;;24.30;100357.00;;;;5061859;28;20192;-78
2022/04/23 10:53:58;;;;;;;10.50;9.20;;;;;24.30;100360.00;;;;5067100;28;20667;-78
2022/04/23 10:56:26;;;;;;;11.52;9.75;;;;;24.60;100357.00;;;;5063529;28;20211;-78
2022/04/23 10:58:54;;;;;;;12.02;8.73;;;;;24.60;100359.00;;;;5067681;28;20903;-77
2022/04/23 11:01:29;;;;;;;10.45;8.70;;;;;24.70;100358.00;;;;5060747;28;20205;-78
2022/04/23 11:04:20;;;;;;;11.13;9.38;;;;;24.70;100362.00;;;;5068584;28;20206;-78
2022/04/23 11:12:32;;;;;;;13.40;9.50;;;;;25.10;100351.00;;;;5033613;28;20293;-77
2022/04/23 11:15:01;;;;;;;10.32;9.20;;;;;25.30;100348.00;;;;5062285;28;20587;-76
2022/04/23 11:17:46;;;;;;;10.07;8.93;;;;;25.30;100353.00;;;;5060867;28;20838;-78
2022/04/23 11:20:14;;;;;;;10.90;8.55;;;;;25.40;100357.00;;;;5058004;28;20215;-77
2022/04/23 11:22:41;;;;;;;11.27;8.70;;;;;25.50;100356.00;;;;5052547;28;20310;-77
2022/04/23 11:25:09;;;;;;;9.75;8.30;;;;;25.50;100356.00;;;;5060416;28;20281;-78
2022/04/23 11:27:38;;;;;;;10.18;7.80;;;;;25.50;100335.00;;;;5065098;28;20241;-77
2022/04/23 11:30:07;;;;;;;9.30;8.13;;;;;25.50;100340.00;;;;5056682;28;20196;-78
2022/04/23 11:32:36;;;;;;;8.05;7.07;;;;;25.50;100338.00;;;;5051402;28;20203;-78
2022/04/23 11:35:06;;;;;;;9.63;8.10;;;;;25.60;100320.00;;;;5070636;28;20223;-79
2022/04/23 11:37:34;;;;;;;8.98;7.65;;;;;25.70;100326.00;;;;5070293;28;20221;-78
2022/04/23 11:40:09;;;;;;;8.48;7.57;;;;;25.70;100330.00;;;;5062918;28;21785;-77
2022/04/23 11:42:39;;;;;;;9.85;8.23;;;;;25.90;100330.00;;;;5054013;28;20211;-77
2022/04/23 11:45:08;;;;;;;9.73;8.30;;;;;25.90;100333.00;;;;5045529;28;20293;-77
2022/04/23 11:47:35;;;;;;;9.45;8.35;;;;;26.00;100315.00;;;;5059238;28;20199;-77
2022/04/23 11:50:13;;;;;;;11.93;9.20;;;;;26.00;100334.00;;;;5065569;28;20206;-79
2022/04/23 11:52:41;;;;;;;10.48;9.00;;;;;26.20;100318.00;;;;5050130;28;20203;-81
2022/04/23 11:55:20;;;;;;;10.60;8.93;;;;;26.20;100313.00;;;;5066817;28;20219;-79
2022/04/23 11:57:55;;;;;;;10.55;8.13;;;;;26.10;100318.00;;;;5056381;28;20218;-80
2022/04/23 12:00:22;;;;;;;11.38;8.13;;;;;26.10;100317.00;;;;5050584;28;20199;-79
2022/04/23 12:02:51;;;;;;;12.98;9.15;;;;;26.10;100322.00;;;;5063535;28;20278;-80
2022/04/23 12:05:28;;;;;;;9.75;8.50;;;;;26.10;100326.00;;;;5052319;28;20721;-79
2022/04/23 12:07:55;;;;;;;11.23;9.15;;;;;26.10;100302.00;;;;5057957;28;20195;-78
2022/04/23 12:10:28;;;;;;;11.60;9.35;;;;;26.10;100316.00;;;;5062343;28;20214;-79
2022/04/23 12:13:05;;;;;;;12.80;10.10;;;;;26.20;100311.00;;;;5052932;28;20646;-81
2022/04/23 12:15:33;;;;;;;8.98;8.07;;;;;26.30;100305.00;;;;5067181;28;20222;-80
2022/04/23 12:18:01;;;;;;;11.70;8.65;;;;;26.30;100301.00;;;;5057507;28;20199;-81
2022/04/23 12:20:35;;;;;;;10.50;9.25;;;;;26.40;100313.00;;;;5060084;28;20195;-79
2022/04/23 12:23:05;;;;;;;10.68;8.88;;;;;26.40;100305.00;;;;5050028;28;20593;-78
2022/04/23 12:25:33;;;;;;;10.45;9.25;;;;;26.40;100307.00;;;;5054176;28;20210;-78
2022/04/23 12:40:43;;;;;;;13.02;10.55;;;;;26.40;100292.00;;;;5055772;28;20203;-79
2022/04/23 12:42:04;;;;;;;15.75;10.23;;;;;26.40;100281.00;;;;5053653;28;20199;-78
2022/04/23 12:44:35;;;;;;;11.18;8.23;;;;;26.50;100278.00;;;;5052574;28;20822;-78
2022/04/23 12:47:04;;;;;;;11.13;9.68;;;;;26.60;100275.00;;;;5056821;28;20231;-79
2022/04/23 12:49:48;;;;;;;13.55;10.25;;;;;26.60;100283.00;;;;5064318;28;20202;-78